Time;durP1;ratioP1;P1;durP2;ratioP2;P2;SDS_P1;SDS_P2;PMS_P1;PMS_P2;Temp;Humidity;BMP_temperature;BMP_pressure;BME280_temperature;BME280_humidity;BME280_pressure;Samples;Min_cycle;Max_cycle;Signal;HPM_P1;HPM_P2
2022/07/01 00:02:14;;;;;;;12.20;2.33;;;;;;;24.69;48.06;100530.41;4991512;28;20089;-75
2022/07/01 00:04:40;;;;;;;13.60;2.15;;;;;;;24.58;48.36;100527.50;4991270;28;20068;-74
2022/07/01 00:07:07;;;;;;;8.35;2.30;;;;;;;24.59;48.59;100527.25;4991005;28;20038;-74
2022/07/01 00:09:32;;;;;;;17.05;2.60;;;;;;;24.59;48.28;100520.91;4992235;28;20026;-75
2022/07/01 00:11:59;;;;;;;9.77;1.88;;;;;;;24.37;48.26;100501.97;4990516;28;20026;-75
2022/07/01 00:14:26;;;;;;;5.47;2.00;;;;;;;24.40;48.63;100536.44;4992257;28;20092;-75
2022/07/01 00:16:51;;;;;;;7.60;2.40;;;;;;;24.29;48.94;100520.59;4990877;28;20083;-75
2022/07/01 00:19:18;;;;;;;6.57;1.85;;;;;;;24.30;49.32;100533.31;4991935;28;20049;-75
2022/07/01 00:21:45;;;;;;;10.98;2.20;;;;;;;24.31;49.27;100532.25;4990800;28;20480;-75
2022/07/01 00:24:11;;;;;;;12.65;2.33;;;;;;;24.33;49.03;100533.72;4992281;28;20175;-74
2022/07/01 00:26:36;;;;;;;9.82;2.47;;;;;;;24.34;48.92;100534.56;4992139;28;20548;-75
2022/07/01 00:29:03;;;;;;;13.48;2.83;;;;;;;24.28;49.25;100529.91;4991833;28;20041;-75
2022/07/01 00:31:28;;;;;;;10.27;2.30;;;;;;;24.26;49.46;100537.53;4958788;28;20038;-75
2022/07/01 00:33:55;;;;;;;9.95;2.10;;;;;;;24.19;49.83;100528.44;4991510;28;20034;-75
2022/07/01 00:36:21;;;;;;;10.38;2.63;;;;;;;24.32;49.59;100531.16;4990711;28;20042;-75
2022/07/01 00:38:47;;;;;;;6.03;2.55;;;;;;;24.27;48.98;100523.59;4974666;28;20108;-74
2022/07/01 00:41:13;;;;;;;17.02;3.58;;;;;;;24.26;50.06;100532.03;4991013;28;20436;-74
2022/07/01 00:43:40;;;;;;;17.27;5.07;;;;;;;24.31;53.22;100524.81;4990729;28;20121;-74
2022/07/01 00:46:06;;;;;;;12.30;4.65;;;;;;;24.30;54.11;100527.81;4990974;28;20044;-75
2022/07/01 00:48:33;;;;;;;13.82;4.60;;;;;;;24.28;54.85;100525.25;4990063;28;20042;-74
2022/07/01 00:51:00;;;;;;;11.70;4.65;;;;;;;24.22;54.86;100528.03;4990627;28;20052;-74
2022/07/01 00:53:27;;;;;;;18.85;4.85;;;;;;;24.20;54.49;100520.00;4990247;28;20062;-74
2022/07/01 00:55:53;;;;;;;19.80;4.90;;;;;;;24.10;55.84;100526.97;4991742;28;20529;-74
2022/07/01 00:58:19;;;;;;;20.30;5.03;;;;;;;24.09;55.89;100528.91;4991808;28;20058;-74
2022/07/01 01:00:44;;;;;;;23.02;4.93;;;;;;;24.07;55.97;100521.91;4990426;28;20038;-74
2022/07/01 01:03:11;;;;;;;9.35;4.07;;;;;;;24.03;55.45;100520.66;4991625;28;20472;-74
2022/07/01 01:05:38;;;;;;;15.27;3.80;;;;;;;23.97;53.94;100510.53;4991745;28;20405;-74
2022/07/01 01:08:05;;;;;;;12.52;3.47;;;;;;;23.97;54.36;100524.25;4990489;28;20033;-74
2022/07/01 01:10:35;;;;;;;15.20;4.00;;;;;;;23.94;54.30;100510.97;4991782;28;20085;-74
2022/07/01 01:13:00;;;;;;;16.52;3.50;;;;;;;23.83;54.34;100504.19;4990371;28;20030;-74
2022/07/01 01:15:27;;;;;;;11.45;2.83;;;;;;;23.72;53.68;100502.97;4992487;28;20030;-74
2022/07/01 01:17:53;;;;;;;8.88;2.60;;;;;;;23.74;52.67;100510.97;4996027;28;20061;-75
2022/07/01 01:20:20;;;;;;;9.07;2.95;;;;;;;23.74;51.84;100494.50;4994262;28;20053;-74
2022/07/01 01:22:46;;;;;;;11.07;3.28;;;;;;;23.84;51.67;100509.50;4993989;28;20097;-74
2022/07/01 01:25:12;;;;;;;13.98;2.70;;;;;;;23.80;51.50;100499.97;4994664;28;20118;-75
2022/07/01 01:27:38;;;;;;;14.43;2.92;;;;;;;23.88;51.63;100500.81;4994278;28;20117;-75
2022/07/01 01:30:08;;;;;;;10.73;2.78;;;;;;;23.92;51.29;100504.81;4995706;28;20105;-75
2022/07/01 01:32:34;;;;;;;12.15;2.28;;;;;;;23.90;51.58;100504.19;4977725;28;20038;-75
2022/07/01 01:35:02;;;;;;;9.73;2.70;;;;;;;23.94;51.26;100503.56;4994092;28;20038;-75
2022/07/01 01:37:27;;;;;;;15.65;2.65;;;;;;;23.89;51.01;100497.00;4995704;28;20105;-75
2022/07/01 01:39:53;;;;;;;11.70;2.50;;;;;;;23.98;51.14;100513.03;4995433;28;20855;-75
2022/07/01 01:42:19;;;;;;;10.80;2.30;;;;;;;23.96;50.97;100509.69;4993772;28;20038;-75
2022/07/01 01:44:44;;;;;;;13.85;3.15;;;;;;;23.94;51.21;100505.47;4994099;28;20038;-75
2022/07/01 01:47:10;;;;;;;8.20;2.42;;;;;;;23.97;51.39;100507.78;4995444;28;20149;-75
2022/07/01 01:49:35;;;;;;;12.75;2.47;;;;;;;24.01;51.13;100511.78;4994995;28;20042;-75
2022/07/01 01:52:02;;;;;;;12.05;3.20;;;;;;;23.90;51.76;100495.94;4994993;28;20026;-75
2022/07/01 01:54:28;;;;;;;14.85;3.50;;;;;;;23.96;51.68;100517.91;4995369;28;20173;-74
2022/07/01 01:56:53;;;;;;;15.90;3.20;;;;;;;23.98;51.85;100512.19;4993945;28;20117;-76
2022/07/01 01:59:18;;;;;;;21.38;2.88;;;;;;;24.04;51.81;100522.31;4993790;28;20038;-75
2022/07/01 02:01:44;;;;;;;18.90;3.10;;;;;;;24.05;52.11;100529.53;4995147;28;20038;-74
2022/07/01 02:04:11;;;;;;;18.88;2.95;;;;;;;24.04;51.43;100525.06;4993952;28;20038;-74
2022/07/01 02:06:37;;;;;;;11.32;2.90;;;;;;;24.03;50.14;100506.91;4994166;28;20035;-75
2022/07/01 02:09:03;;;;;;;14.15;3.13;;;;;;;24.09;50.15;100530.78;4993463;28;20033;-74
2022/07/01 02:11:29;;;;;;;10.50;3.15;;;;;;;24.07;49.70;100520.00;4993231;28;20725;-74
2022/07/01 02:13:54;;;;;;;16.70;3.60;;;;;;;24.13;49.72;100532.06;4991925;28;20034;-74
2022/07/01 02:16:20;;;;;;;7.65;2.42;;;;;;;24.15;50.07;100529.97;4993430;28;20032;-73
2022/07/01 02:18:46;;;;;;;8.00;2.65;;;;;;;24.14;49.79;100536.50;4994776;28;20447;-75
2022/07/01 02:21:12;;;;;;;5.25;2.63;;;;;;;24.04;50.52;100538.81;4993338;28;20036;-75
2022/07/01 02:23:37;;;;;;;14.35;2.75;;;;;;;24.00;50.64;100540.31;4994548;28;20092;-75
2022/07/01 02:26:03;;;;;;;11.65;2.05;;;;;;;24.12;50.75;100536.75;4992879;28;20125;-75
2022/07/01 02:28:30;;;;;;;22.70;2.58;;;;;;;24.16;50.49;100517.88;4994183;28;20498;-75
2022/07/01 02:30:55;;;;;;;2.78;2.10;;;;;;;24.23;50.34;100526.97;4994261;28;20034;-75
2022/07/01 02:33:21;;;;;;;18.42;2.95;;;;;;;24.26;50.47;100534.78;4993906;28;20030;-75
2022/07/01 02:35:47;;;;;;;9.77;3.15;;;;;;;24.28;51.04;100527.16;4994083;28;20029;-75
2022/07/01 02:38:12;;;;;;;13.70;3.75;;;;;;;24.30;51.27;100536.06;4992675;28;20038;-74
2022/07/01 02:40:39;;;;;;;13.25;3.22;;;;;;;24.16;51.60;100517.88;4992392;28;20026;-74
2022/07/01 02:43:07;;;;;;;13.98;4.03;;;;;;;24.21;51.60;100538.19;4993766;28;20078;-75
2022/07/01 02:45:32;;;;;;;8.93;3.65;;;;;;;24.20;52.04;100546.66;4976480;28;20034;-73
2022/07/01 02:47:58;;;;;;;13.02;3.42;;;;;;;24.24;51.94;100539.66;4993555;28;20105;-74
2022/07/01 02:50:24;;;;;;;7.35;2.95;;;;;;;24.28;51.90;100535.41;4991836;28;20077;-74
2022/07/01 02:52:50;;;;;;;12.98;3.63;;;;;;;24.30;51.92;100530.56;4976146;28;20042;-74
2022/07/01 02:55:16;;;;;;;12.27;3.50;;;;;;;24.34;51.77;100534.56;4992180;28;20551;-74
2022/07/01 02:57:44;;;;;;;21.15;5.75;;;;;;;24.41;52.24;100540.88;4992620;28;20034;-74
2022/07/01 03:00:12;;;;;;;14.40;3.95;;;;;;;24.45;52.06;100541.28;4977645;28;20439;-74
2022/07/01 03:02:39;;;;;;;43.40;4.78;;;;;;;24.46;52.03;100546.59;4994177;28;20388;-74
2022/07/01 03:05:06;;;;;;;14.10;3.00;;;;;;;24.47;51.20;100548.25;4992403;28;20420;-75
2022/07/01 03:07:31;;;;;;;12.85;3.42;;;;;;;24.47;50.58;100531.75;4990869;28;20491;-75
2022/07/01 03:09:57;;;;;;;20.15;5.07;;;;;;;24.52;50.27;100542.13;4992034;28;20054;-75
2022/07/01 03:12:29;;;;;;;11.25;3.78;;;;;;;24.50;50.40;100545.06;4992104;28;20408;-75
2022/07/01 03:15:10;;;;;;;12.27;3.33;;;;;;;24.51;50.17;100555.00;4993360;28;20034;-75
2022/07/01 03:17:38;;;;;;;21.05;3.17;;;;;;;24.50;50.19;100556.06;4993461;28;20069;-74
2022/07/01 03:20:04;;;;;;;16.73;3.35;;;;;;;24.51;50.31;100557.75;4993357;28;20041;-74
2022/07/01 03:22:31;;;;;;;25.60;4.32;;;;;;;24.53;50.72;100558.38;4993235;28;20102;-74
2022/07/01 03:24:59;;;;;;;21.05;5.13;;;;;;;24.58;50.85;100555.84;4991980;28;20129;-75
2022/07/01 03:27:25;;;;;;;35.78;10.02;;;;;;;24.54;50.70;100546.31;4993082;28;20068;-75
2022/07/01 03:29:51;;;;;;;23.05;6.38;;;;;;;24.61;50.32;100549.91;4991473;28;20056;-74
2022/07/01 03:32:18;;;;;;;24.75;5.65;;;;;;;24.63;50.38;100555.16;4992899;28;20038;-76
2022/07/01 03:34:48;;;;;;;29.92;5.50;;;;;;;24.57;50.28;100556.03;4993151;28;20112;-74
2022/07/01 03:37:14;;;;;;;28.58;5.03;;;;;;;24.67;50.62;100561.94;4992754;28;20034;-75
2022/07/01 03:39:42;;;;;;;27.77;5.80;;;;;;;24.67;50.61;100557.28;4993114;28;20034;-75
2022/07/01 03:42:09;;;;;;;28.75;5.63;;;;;;;24.69;50.61;100548.78;4992851;28;20101;-75
2022/07/01 03:44:35;;;;;;;47.65;5.97;;;;;;;24.75;51.08;100570.78;4991665;28;20037;-75
2022/07/01 03:47:05;;;;;;;23.65;4.78;;;;;;;24.67;51.37;100568.28;4991402;28;20057;-75
2022/07/01 03:49:34;;;;;;;27.13;4.88;;;;;;;24.76;51.19;100563.38;4992943;28;20150;-75
2022/07/01 03:52:03;;;;;;;31.42;5.50;;;;;;;24.69;50.73;100548.78;4991237;28;20107;-75
2022/07/01 03:54:30;;;;;;;31.38;5.22;;;;;;;24.76;50.85;100555.97;4992680;28;20034;-75
2022/07/01 03:57:00;;;;;;;41.28;7.40;;;;;;;24.77;50.73;100562.28;4992920;28;20049;-77
2022/07/01 03:59:26;;;;;;;50.38;7.07;;;;;;;24.78;50.66;100559.34;4992822;28;20026;-78
2022/07/01 04:01:56;;;;;;;39.97;6.13;;;;;;;24.80;50.74;100562.69;4991065;28;20033;-77
2022/07/01 04:04:24;;;;;;;41.33;5.18;;;;;;;24.84;50.86;100569.50;4992883;28;20839;-78
2022/07/01 04:06:51;;;;;;;52.83;7.50;;;;;;;24.81;51.30;100555.34;4975539;28;20134;-77
2022/07/01 04:09:17;;;;;;;42.28;8.75;;;;;;;24.85;51.28;100562.94;4974992;28;20065;-76
2022/07/01 04:11:45;;;;;;;61.05;7.60;;;;;;;24.87;51.22;100555.31;4992746;28;20034;-77
2022/07/01 04:14:12;;;;;;;52.28;7.40;;;;;;;24.95;51.14;100569.88;4992269;28;20464;-78
2022/07/01 04:16:38;;;;;;;39.80;7.93;;;;;;;24.90;50.94;100562.28;4992921;28;20088;-78
2022/07/01 04:19:04;;;;;;;37.00;5.10;;;;;;;24.98;50.70;100562.03;4991246;28;20050;-78
2022/07/01 04:24:16;;;;;;;35.15;7.20;;;;;;;25.06;51.10;100555.41;4993170;28;20076;-76
2022/07/01 04:26:43;;;;;;;43.30;7.40;;;;;;;25.08;51.00;100564.28;4975045;28;20026;-76
2022/07/01 04:29:09;;;;;;;15.95;5.00;;;;;;;25.13;51.02;100570.00;4974982;28;20459;-76
2022/07/01 04:31:38;;;;;;;49.47;6.43;;;;;;;25.15;51.86;100576.09;4991765;28;20030;-75
2022/07/01 04:34:06;;;;;;;24.55;7.20;;;;;;;25.16;53.75;100586.06;4993170;28;20097;-82
2022/07/01 04:36:31;;;;;;;34.17;8.45;;;;;;;25.14;54.74;100586.28;4976773;28;20037;-87
2022/07/01 04:38:57;;;;;;;41.65;9.63;;;;;;;25.13;55.59;100586.50;4994402;28;20027;-83
2022/07/01 04:44:10;;;;;;;34.88;10.73;;;;;;;25.10;56.17;100567.69;4994876;28;20120;-80
2022/07/01 04:46:36;;;;;;;28.80;11.18;;;;;;;25.21;56.65;100586.22;4991773;28;20054;-76
2022/07/01 04:49:03;;;;;;;47.22;12.18;;;;;;;25.23;56.52;100578.59;4973745;28;20041;-78
2022/07/01 04:51:29;;;;;;;34.22;11.30;;;;;;;25.20;56.63;100579.03;4974434;28;20125;-77
2022/07/01 04:53:56;;;;;;;45.42;13.02;;;;;;;25.15;56.57;100565.94;4975061;28;20065;-76
2022/07/01 04:56:21;;;;;;;62.47;12.38;;;;;;;25.17;56.49;100580.31;4992036;28;20083;-76
2022/07/01 04:58:48;;;;;;;31.48;10.90;;;;;;;25.14;56.57;100580.75;4991538;28;20046;-78
2022/07/01 05:01:14;;;;;;;27.83;10.27;;;;;;;25.19;56.63;100585.63;4975302;28;20464;-79
2022/07/01 05:03:40;;;;;;;59.58;12.13;;;;;;;25.20;56.38;100585.38;4958537;28;20041;-78
2022/07/01 05:06:06;;;;;;;52.85;12.73;;;;;;;25.19;56.50;100575.47;4958909;28;20038;-78
2022/07/01 05:08:31;;;;;;;46.55;12.80;;;;;;;25.24;56.85;100588.53;4973842;28;20088;-76
2022/07/01 05:10:57;;;;;;;59.67;12.40;;;;;;;25.23;56.73;100590.44;4991280;28;20030;-77
2022/07/01 05:13:23;;;;;;;60.55;12.82;;;;;;;25.14;56.41;100590.94;4958264;28;20054;-79
2022/07/01 05:15:49;;;;;;;65.65;13.07;;;;;;;25.28;55.99;100595.31;4974661;28;20030;-80
2022/07/01 05:23:44;;;;;;;48.60;11.35;;;;;;;25.63;54.95;100595.72;4991811;28;20037;-78
2022/07/01 05:26:16;;;;;;;58.85;12.73;;;;;;;25.68;54.31;100590.41;4991749;28;20026;-76
2022/07/01 05:28:42;;;;;;;75.25;13.48;;;;;;;25.73;54.66;100596.06;4974138;28;20031;-77
2022/07/01 05:31:07;;;;;;;62.38;11.77;;;;;;;25.78;54.26;100588.81;4991986;28;20054;-77
2022/07/01 05:33:33;;;;;;;43.15;11.10;;;;;;;25.82;53.99;100601.09;4974192;28;20433;-76
2022/07/01 05:35:58;;;;;;;51.60;11.40;;;;;;;25.73;53.90;100601.56;4974068;28;20033;-75
2022/07/01 05:38:24;;;;;;;36.22;10.65;;;;;;;25.79;53.87;100606.19;4991757;28;20049;-76
2022/07/01 05:40:49;;;;;;;40.92;12.55;;;;;;;25.87;53.87;100598.47;4991236;28;20054;-76
2022/07/01 05:43:15;;;;;;;45.90;11.35;;;;;;;25.96;53.72;100601.81;4991517;28;20038;-76
2022/07/01 05:45:40;;;;;;;43.10;11.75;;;;;;;25.99;53.46;100602.19;4973517;28;20541;-78
2022/07/01 05:48:06;;;;;;;42.33;13.02;;;;;;;26.02;53.28;100594.56;4990861;28;20054;-77
2022/07/01 05:50:31;;;;;;;43.97;11.63;;;;;;;26.13;53.09;100596.56;4990941;28;20031;-76
2022/07/01 05:52:57;;;;;;;61.38;12.07;;;;;;;26.24;53.01;100588.41;4974054;28;20476;-78
2022/07/01 05:55:25;;;;;;;37.08;11.13;;;;;;;26.35;52.57;100590.44;4990114;28;20044;-77
2022/07/01 05:57:53;;;;;;;37.42;11.35;;;;;;;26.33;52.10;100564.13;4994681;28;20117;-78
2022/07/01 06:00:19;;;;;;;45.75;11.70;;;;;;;26.65;52.04;100586.91;4992390;28;20058;-77
2022/07/01 06:02:46;;;;;;;45.90;10.85;;;;;;;26.67;51.34;100593.88;4993453;28;20503;-77
2022/07/01 06:05:13;;;;;;;40.40;9.80;;;;;;;26.79;51.28;100586.50;4994743;28;20030;-76
2022/07/01 06:07:40;;;;;;;43.15;10.43;;;;;;;27.06;50.27;100597.25;4994649;28;20125;-76
2022/07/01 06:10:07;;;;;;;32.85;8.38;;;;;;;27.19;49.81;100597.91;4993417;28;20038;-80
2022/07/01 06:12:33;;;;;;;40.72;10.32;;;;;;;27.23;49.33;100587.22;4994238;28;20038;-79
2022/07/01 06:14:58;;;;;;;35.53;10.27;;;;;;;27.40;49.00;100605.66;4996753;28;20384;-80
2022/07/01 06:17:24;;;;;;;25.58;9.00;;;;;;;27.45;48.00;100592.03;4995962;28;20526;-79
2022/07/01 06:19:53;;;;;;;38.63;10.70;;;;;;;27.62;47.85;100608.75;4998981;28;20035;-80
2022/07/01 06:22:20;;;;;;;30.00;9.20;;;;;;;27.66;48.10;100609.97;5005728;28;20019;-79
2022/07/01 06:24:48;;;;;;;33.65;8.50;;;;;;;27.74;47.64;100606.84;4994306;28;20125;-80
2022/07/01 06:27:14;;;;;;;33.55;10.65;;;;;;;27.75;47.85;100614.09;4994279;28;20022;-80
2022/07/01 06:29:40;;;;;;;31.98;10.05;;;;;;;27.56;46.36;100601.41;4995171;28;20030;-80
2022/07/01 06:32:07;;;;;;;33.35;9.93;;;;;;;27.62;46.22;100614.28;4994051;28;20030;-81
2022/07/01 06:34:33;;;;;;;32.13;8.38;;;;;;;27.60;47.48;100610.06;4993367;28;20034;-80
2022/07/01 06:37:01;;;;;;;40.00;10.32;;;;;;;27.57;47.69;100611.41;4993318;28;20532;-80
2022/07/01 06:39:28;;;;;;;37.97;10.75;;;;;;;27.58;47.66;100602.84;4994999;28;20109;-79
2022/07/01 06:41:55;;;;;;;44.75;10.88;;;;;;;27.56;47.57;100604.19;4977231;28;20469;-81
2022/07/01 06:44:21;;;;;;;45.50;9.00;;;;;;;27.58;46.65;100613.91;4995339;28;20492;-80
2022/07/01 06:46:47;;;;;;;37.65;9.43;;;;;;;27.68;46.75;100613.34;4993083;28;20057;-80
2022/07/01 06:49:14;;;;;;;46.10;9.13;;;;;;;27.77;45.92;100614.69;4994407;28;20030;-80
2022/07/01 06:51:40;;;;;;;25.77;5.75;;;;;;;27.81;44.60;100613.13;4994906;28;20134;-80
2022/07/01 06:54:05;;;;;;;14.85;4.63;;;;;;;27.73;43.79;100605.19;4994592;28;20097;-80
2022/07/01 06:56:31;;;;;;;23.80;5.05;;;;;;;27.74;43.79;100609.63;4994520;28;20104;-79
2022/07/01 06:58:56;;;;;;;27.58;7.50;;;;;;;27.70;43.94;100605.66;4993086;28;20030;-81
2022/07/01 07:01:24;;;;;;;26.40;4.30;;;;;;;27.65;42.92;100601.91;4994732;28;20019;-80
2022/07/01 07:03:49;;;;;;;24.55;4.03;;;;;;;27.62;43.56;100607.91;4993140;28;20026;-78
2022/07/01 07:06:15;;;;;;;16.50;5.03;;;;;;;27.61;43.44;100597.97;4992451;28;20117;-78
2022/07/01 07:08:42;;;;;;;10.68;3.78;;;;;;;27.62;43.40;100592.19;4993878;28;20041;-81
2022/07/01 07:11:08;;;;;;;11.70;3.97;;;;;;;27.75;43.71;100607.72;4994016;28;20080;-78
2022/07/01 07:13:35;;;;;;;11.23;3.33;;;;;;;27.69;42.98;100598.44;4993368;28;20109;-83
2022/07/01 07:16:03;;;;;;;17.23;3.42;;;;;;;27.84;43.00;100601.59;4993688;28;20041;-80
2022/07/01 07:18:29;;;;;;;14.73;2.92;;;;;;;27.88;43.62;100602.81;4994458;28;20035;-83
2022/07/01 07:20:56;;;;;;;11.38;2.75;;;;;;;27.96;42.69;100602.44;4980023;28;20046;-79
2022/07/01 07:23:23;;;;;;;10.85;3.00;;;;;;;27.87;42.62;100597.50;4994458;28;20080;-78
2022/07/01 07:25:48;;;;;;;12.18;3.47;;;;;;;27.90;43.07;100605.31;4994385;28;20018;-77
2022/07/01 07:28:14;;;;;;;13.68;3.25;;;;;;;27.96;42.48;100607.13;4992018;28;20798;-76
2022/07/01 07:30:41;;;;;;;12.45;3.50;;;;;;;28.03;42.82;100622.56;4992957;28;20034;-78
2022/07/01 07:33:08;;;;;;;17.02;3.55;;;;;;;28.05;42.54;100614.88;4991799;28;20385;-77
2022/07/01 07:35:36;;;;;;;10.68;3.38;;;;;;;28.15;42.67;100624.50;4992109;28;20137;-77
2022/07/01 07:38:02;;;;;;;16.00;3.40;;;;;;;28.30;42.18;100627.63;4992386;28;20027;-77
2022/07/01 07:40:27;;;;;;;9.68;3.17;;;;;;;28.35;42.38;100634.13;4992604;28;20399;-77
2022/07/01 07:42:53;;;;;;;14.13;4.05;;;;;;;28.31;42.50;100634.84;4993094;28;20034;-78
2022/07/01 07:45:19;;;;;;;15.65;3.08;;;;;;;28.28;42.64;100624.28;4975005;28;20034;-76
2022/07/01 07:47:51;;;;;;;18.23;2.92;;;;;;;28.37;42.62;100631.13;4992866;28;20046;-77
2022/07/01 07:50:18;;;;;;;12.32;2.60;;;;;;;28.41;42.36;100624.00;4991733;28;20058;-76
2022/07/01 07:52:44;;;;;;;20.45;3.03;;;;;;;28.45;41.83;100630.75;4991522;28;20030;-77
2022/07/01 07:55:11;;;;;;;15.13;3.17;;;;;;;28.50;42.42;100639.19;4993290;28;20061;-77
2022/07/01 07:57:39;;;;;;;8.00;3.05;;;;;;;28.43;41.64;100621.84;4993992;28;20062;-80
2022/07/01 08:00:06;;;;;;;14.43;2.35;;;;;;;28.45;41.20;100636.28;4993526;28;20022;-79
2022/07/01 08:02:33;;;;;;;20.33;2.85;;;;;;;28.33;41.44;100618.84;4991223;28;20085;-79
2022/07/01 08:04:59;;;;;;;8.68;2.88;;;;;;;28.38;41.46;100635.56;4991875;28;20037;-78
2022/07/01 08:07:25;;;;;;;12.48;2.53;;;;;;;28.37;41.36;100628.38;4991217;28;20042;-77
2022/07/01 08:09:51;;;;;;;8.55;2.42;;;;;;;28.56;41.75;100638.22;4992301;28;20089;-77
2022/07/01 08:12:17;;;;;;;4.47;2.00;;;;;;;28.48;41.53;100631.13;4990935;28;20037;-76
2022/07/01 08:14:46;;;;;;;15.32;3.17;;;;;;;28.45;41.85;100641.81;4990867;28;20034;-77
2022/07/01 08:17:13;;;;;;;7.47;2.92;;;;;;;28.53;42.61;100633.97;4992012;28;20177;-77
2022/07/01 08:19:40;;;;;;;14.30;2.55;;;;;;;28.60;43.11;100622.78;4992491;28;20029;-77
2022/07/01 08:22:06;;;;;;;11.20;2.50;;;;;;;28.72;42.93;100629.19;4993146;28;20528;-78
2022/07/01 08:24:33;;;;;;;12.38;2.75;;;;;;;28.61;42.94;100625.34;4959342;28;20129;-78
2022/07/01 08:26:59;;;;;;;15.50;3.38;;;;;;;28.59;43.47;100610.06;4992618;28;20069;-78
2022/07/01 08:29:25;;;;;;;37.40;3.70;;;;;;;28.49;43.81;100598.75;4991915;28;20065;-78
2022/07/01 08:31:50;;;;;;;13.55;3.28;;;;;;;28.67;44.76;100623.53;4992412;28;20030;-77
2022/07/01 08:34:17;;;;;;;15.95;2.67;;;;;;;28.70;45.64;100627.75;4993758;28;20042;-78
2022/07/01 08:36:44;;;;;;;13.45;3.58;;;;;;;28.57;44.93;100635.19;4974886;28;20393;-76
2022/07/01 08:39:15;;;;;;;9.32;2.88;;;;;;;28.45;46.31;100636.28;4990506;28;20085;-76
2022/07/01 08:41:41;;;;;;;21.95;3.33;;;;;;;28.46;46.76;100651.81;4992020;28;20042;-75
2022/07/01 08:44:09;;;;;;;11.80;2.40;;;;;;;28.44;48.35;100645.69;4992425;28;20033;-77
2022/07/01 08:46:38;;;;;;;12.98;3.60;;;;;;;28.55;48.58;100650.38;4991109;28;20056;-78
2022/07/01 08:49:03;;;;;;;11.68;3.58;;;;;;;28.60;49.32;100650.47;4991793;28;20046;-77
2022/07/01 08:51:30;;;;;;;13.60;3.53;;;;;;;28.58;49.81;100655.41;4991432;28;20060;-77
2022/07/01 08:53:55;;;;;;;10.77;4.88;;;;;;;28.65;49.89;100653.41;4975623;28;20057;-76
2022/07/01 08:59:06;;;;;;;18.05;3.78;;;;;;;28.73;50.51;100647.50;4991488;28;20154;-75
2022/07/01 09:01:33;;;;;;;19.58;3.65;;;;;;;28.68;51.17;100652.91;4990508;28;20030;-77
2022/07/01 09:04:17;;;;;;;12.77;3.88;;;;;;;28.71;51.11;100643.28;4973474;28;20034;-76
2022/07/01 09:06:43;;;;;;;12.43;4.05;;;;;;;28.66;51.19;100666.13;4990303;28;20030;-78
2022/07/01 09:09:20;;;;;;;12.68;4.18;;;;;;;28.65;51.91;100653.41;4989674;28;20030;-77
2022/07/01 09:11:55;;;;;;;13.50;3.45;;;;;;;28.71;52.40;100668.19;4991930;28;20046;-76
2022/07/01 09:14:28;;;;;;;6.70;4.15;;;;;;;28.76;52.52;100666.38;4991772;28;20045;-76
2022/07/01 09:16:57;;;;;;;19.40;4.50;;;;;;;28.80;52.51;100656.50;4991160;28;20038;-77
2022/07/01 09:19:29;;;;;;;12.10;4.90;;;;;;;28.82;52.85;100657.09;4991833;28;20032;-78
2022/07/01 09:21:56;;;;;;;23.60;4.90;;;;;;;28.91;52.68;100663.09;4991907;28;20041;-75
2022/07/01 09:24:26;;;;;;;13.32;4.53;;;;;;;28.80;53.30;100656.50;4992158;28;20033;-76
2022/07/01 09:27:13;;;;;;;11.85;4.90;;;;;;;28.88;53.34;100669.97;4991823;28;20109;-77
2022/07/01 09:29:44;;;;;;;15.15;4.75;;;;;;;28.97;53.31;100662.13;4991926;28;20396;-76
2022/07/01 09:32:13;;;;;;;14.13;4.95;;;;;;;28.92;53.92;100660.09;4991397;28;20464;-75
2022/07/01 09:34:45;;;;;;;7.40;4.28;;;;;;;28.90;54.18;100666.94;4992209;28;20085;-76
2022/07/01 09:37:14;;;;;;;17.88;5.45;;;;;;;28.94;54.34;100657.06;4978243;28;20050;-78
2022/07/01 09:39:58;;;;;;;11.40;4.68;;;;;;;29.03;54.39;100673.06;4995092;28;20042;-76
2022/07/01 09:42:27;;;;;;;29.58;5.97;;;;;;;29.10;54.00;100662.69;4993906;28;20034;-76
2022/07/01 09:45:05;;;;;;;16.10;5.35;;;;;;;29.21;54.06;100660.13;4995845;28;20472;-76
2022/07/01 09:47:32;;;;;;;9.00;5.20;;;;;;;29.22;54.29;100656.28;4994872;28;20128;-77
2022/07/01 09:49:59;;;;;;;15.30;5.43;;;;;;;29.25;54.59;100658.59;4993342;28;20034;-76
2022/07/01 09:52:25;;;;;;;13.80;5.22;;;;;;;29.18;54.28;100659.53;4995654;28;20065;-76
2022/07/01 09:54:52;;;;;;;16.50;5.68;;;;;;;29.31;53.07;100663.13;4977497;28;20072;-76
2022/07/01 09:57:21;;;;;;;18.40;6.13;;;;;;;29.37;52.34;100656.59;4995301;28;20049;-77
2022/07/01 09:59:49;;;;;;;13.52;4.90;;;;;;;29.41;50.92;100649.50;4994937;28;20088;-76
2022/07/01 10:02:19;;;;;;;12.10;4.28;;;;;;;29.49;49.39;100643.53;4995131;28;20062;-77
2022/07/01 10:04:53;;;;;;;27.20;5.47;;;;;;;29.63;49.60;100650.47;4977675;28;20097;-77
2022/07/01 10:07:55;;;;;;;11.02;4.78;;;;;;;29.68;49.40;100661.66;4994976;28;20030;-77
2022/07/01 10:10:43;;;;;;;9.85;4.60;;;;;;;29.79;48.51;100660.72;4995223;28;20053;-77
2022/07/01 10:13:11;;;;;;;23.45;4.72;;;;;;;29.91;48.66;100652.38;4957843;28;20113;-78
2022/07/01 10:15:41;;;;;;;10.27;4.18;;;;;;;29.94;46.62;100655.47;4958089;28;20126;-79
2022/07/01 10:18:18;;;;;;;8.00;4.38;;;;;;;30.03;45.94;100656.75;4958334;28;20489;-78
2022/07/01 10:20:46;;;;;;;9.98;4.80;;;;;;;30.13;47.27;100661.63;4975580;28;20039;-77
2022/07/01 10:23:12;;;;;;;13.02;4.47;;;;;;;30.09;48.22;100664.06;4975850;28;20030;-77
2022/07/01 10:25:41;;;;;;;16.75;4.95;;;;;;;30.12;50.16;100666.34;4976359;28;20101;-78
2022/07/01 10:28:23;;;;;;;7.38;5.10;;;;;;;30.12;50.54;100666.34;4975535;28;20046;-78
2022/07/01 10:31:09;;;;;;;16.45;5.70;;;;;;;30.18;50.50;100670.88;4977481;28;20426;-77
2022/07/01 10:33:49;;;;;;;13.52;5.50;;;;;;;30.22;50.95;100657.34;4974560;28;20039;-77
2022/07/01 10:36:20;;;;;;;15.63;5.85;;;;;;;30.17;51.66;100672.00;4974918;28;20035;-76
2022/07/01 10:39:06;;;;;;;14.02;5.65;;;;;;;30.31;51.19;100671.63;4974881;28;20114;-77
2022/07/01 10:41:39;;;;;;;11.68;5.90;;;;;;;30.40;51.53;100667.38;4975074;28;20042;-77
2022/07/01 10:44:15;;;;;;;21.55;6.10;;;;;;;30.42;51.38;100676.31;4974943;28;20038;-76
2022/07/01 10:46:50;;;;;;;8.68;5.50;;;;;;;30.42;51.46;100667.97;4979204;28;20054;-76
2022/07/01 10:49:17;;;;;;;12.88;5.57;;;;;;;30.41;51.64;100669.91;4974222;28;20611;-77
2022/07/01 10:52:00;;;;;;;13.25;6.45;;;;;;;30.35;52.68;100664.50;4957259;28;20053;-76
2022/07/01 10:54:40;;;;;;;16.67;5.47;;;;;;;30.30;53.12;100662.50;4957023;28;20517;-75
2022/07/01 10:57:22;;;;;;;11.05;5.60;;;;;;;30.41;52.81;100663.50;4957294;28;20382;-77
2022/07/01 10:59:59;;;;;;;9.55;5.22;;;;;;;30.34;52.52;100665.56;4974381;28;20046;-75
2022/07/01 11:02:36;;;;;;;26.80;6.05;;;;;;;30.34;52.39;100669.19;4974876;28;20034;-75
2022/07/01 11:05:13;;;;;;;15.20;6.72;;;;;;;30.16;53.45;100659.19;4956851;28;20031;-75
2022/07/01 11:07:42;;;;;;;16.63;6.32;;;;;;;29.81;54.66;100636.38;4974732;28;20110;-77
2022/07/01 11:10:13;;;;;;;14.32;5.63;;;;;;;30.06;54.13;100661.78;4974766;28;20109;-75
2022/07/01 11:12:40;;;;;;;16.80;5.78;;;;;;;30.02;53.55;100652.31;4974335;28;20034;-77
2022/07/01 11:15:10;;;;;;;13.00;5.78;;;;;;;30.18;53.75;100647.88;4963216;28;20030;-76
2022/07/01 11:17:42;;;;;;;11.32;5.43;;;;;;;30.20;54.50;100652.06;4962975;28;20038;-77
2022/07/01 11:20:08;;;;;;;17.13;6.18;;;;;;;30.26;53.38;100652.13;4973969;28;20424;-76
2022/07/01 11:22:35;;;;;;;13.23;6.90;;;;;;;30.16;53.52;100645.31;4972929;28;20035;-76
2022/07/01 11:25:04;;;;;;;16.10;5.35;;;;;;;30.12;52.29;100646.09;4957302;28;20089;-77
2022/07/01 11:27:32;;;;;;;17.05;6.38;;;;;;;30.17;52.92;100638.69;4958014;28;20464;-77
2022/07/01 11:30:03;;;;;;;22.90;5.82;;;;;;;30.29;53.68;100649.69;4959729;28;20035;-77
2022/07/01 11:32:33;;;;;;;24.02;5.50;;;;;;;30.34;53.33;100652.53;4974195;28;20583;-76
2022/07/01 11:35:02;;;;;;;10.63;5.72;;;;;;;30.38;52.22;100652.88;4974373;28;20027;-75